sensor_id;sensor_type;location;lat;lon;timestamp;temperature;humidity
14946;DHT22;7567;50.916;6.900;2023-07-13T00:00:28;17.80;99.90
14946;DHT22;7567;50.916;6.900;2023-07-13T00:02:53;17.80;99.90
14946;DHT22;7567;50.916;6.900;2023-07-13T00:05:21;17.70;99.90
14946;DHT22;7567;50.916;6.900;2023-07-13T00:07:47;17.60;99.90
14946;DHT22;7567;50.916;6.900;2023-07-13T00:10:14;17.60;99.90
14946;DHT22;7567;50.916;6.900;2023-07-13T00:12:40;17.60;99.90
14946;DHT22;7567;50.916;6.900;2023-07-13T00:15:11;17.50;99.90
14946;DHT22;7567;50.916;6.900;2023-07-13T00:17:37;17.40;99.90
14946;DHT22;7567;50.916;6.900;2023-07-13T00:20:05;17.50;99.90
14946;DHT22;7567;50.916;6.900;2023-07-13T00:22:31;17.20;1.00
14946;DHT22;7567;50.916;6.900;2023-07-13T00:24:57;17.30;99.90
14946;DHT22;7567;50.916;6.900;2023-07-13T00:27:23;17.10;1.00
14946;DHT22;7567;50.916;6.900;2023-07-13T00:29:49;17.20;99.90
14946;DHT22;7567;50.916;6.900;2023-07-13T00:32:15;17.30;99.90
14946;DHT22;7567;50.916;6.900;2023-07-13T00:34:41;17.30;1.00
14946;DHT22;7567;50.916;6.900;2023-07-13T00:37:07;17.20;1.00
14946;DHT22;7567;50.916;6.900;2023-07-13T00:39:34;17.20;1.00
14946;DHT22;7567;50.916;6.900;2023-07-13T00:42:00;17.00;1.00
14946;DHT22;7567;50.916;6.900;2023-07-13T00:44:27;17.00;1.00
14946;DHT22;7567;50.916;6.900;2023-07-13T00:46:53;16.90;1.00
14946;DHT22;7567;50.916;6.900;2023-07-13T00:49:22;16.90;1.00
14946;DHT22;7567;50.916;6.900;2023-07-13T00:51:53;16.80;1.00
14946;DHT22;7567;50.916;6.900;2023-07-13T00:54:26;16.70;1.00
14946;DHT22;7567;50.916;6.900;2023-07-13T00:56:55;16.70;1.00
14946;DHT22;7567;50.916;6.900;2023-07-13T00:59:24;16.70;1.00
14946;DHT22;7567;50.916;6.900;2023-07-13T01:01:50;16.80;1.00
14946;DHT22;7567;50.916;6.900;2023-07-13T01:04:17;16.80;1.00
14946;DHT22;7567;50.916;6.900;2023-07-13T01:06:43;16.70;1.00
14946;DHT22;7567;50.916;6.900;2023-07-13T01:09:10;16.90;1.00
14946;DHT22;7567;50.916;6.900;2023-07-13T01:11:37;17.00;99.90
14946;DHT22;7567;50.916;6.900;2023-07-13T01:14:04;17.00;1.00
14946;DHT22;7567;50.916;6.900;2023-07-13T01:16:32;16.90;1.00
14946;DHT22;7567;50.916;6.900;2023-07-13T01:18:58;16.70;1.00
14946;DHT22;7567;50.916;6.900;2023-07-13T01:21:25;16.80;1.00
14946;DHT22;7567;50.916;6.900;2023-07-13T01:23:51;16.70;1.00
14946;DHT22;7567;50.916;6.900;2023-07-13T01:26:17;16.70;1.00
14946;DHT22;7567;50.916;6.900;2023-07-13T01:28:43;16.60;1.00
14946;DHT22;7567;50.916;6.900;2023-07-13T01:31:10;16.50;1.00
14946;DHT22;7567;50.916;6.900;2023-07-13T01:33:40;16.60;1.00
14946;DHT22;7567;50.916;6.900;2023-07-13T01:36:10;16.70;1.00
14946;DHT22;7567;50.916;6.900;2023-07-13T01:38:36;16.70;1.00
14946;DHT22;7567;50.916;6.900;2023-07-13T01:41:02;16.70;1.00
14946;DHT22;7567;50.916;6.900;2023-07-13T01:43:28;16.60;1.00
14946;DHT22;7567;50.916;6.900;2023-07-13T01:45:54;16.50;1.00
14946;DHT22;7567;50.916;6.900;2023-07-13T01:48:20;16.30;1.00
14946;DHT22;7567;50.916;6.900;2023-07-13T01:50:47;16.40;1.00
14946;DHT22;7567;50.916;6.900;2023-07-13T01:53:16;16.40;1.00
14946;DHT22;7567;50.916;6.900;2023-07-13T01:55:42;16.40;1.00
14946;DHT22;7567;50.916;6.900;2023-07-13T01:58:08;16.30;1.00
14946;DHT22;7567;50.916;6.900;2023-07-13T02:00:33;16.40;1.00
14946;DHT22;7567;50.916;6.900;2023-07-13T02:02:59;16.40;1.00
14946;DHT22;7567;50.916;6.900;2023-07-13T02:05:25;16.20;1.00
14946;DHT22;7567;50.916;6.900;2023-07-13T02:07:51;16.30;1.00
14946;DHT22;7567;50.916;6.900;2023-07-13T02:10:18;16.20;1.00
14946;DHT22;7567;50.916;6.900;2023-07-13T02:12:44;16.00;1.00
14946;DHT22;7567;50.916;6.900;2023-07-13T02:15:10;16.00;1.00
14946;DHT22;7567;50.916;6.900;2023-07-13T02:17:36;15.90;1.00
14946;DHT22;7567;50.916;6.900;2023-07-13T02:20:03;15.80;1.00
14946;DHT22;7567;50.916;6.900;2023-07-13T02:22:30;15.70;1.00
14946;DHT22;7567;50.916;6.900;2023-07-13T02:24:56;15.70;1.00
14946;DHT22;7567;50.916;6.900;2023-07-13T02:27:21;15.70;1.00
14946;DHT22;7567;50.916;6.900;2023-07-13T02:29:47;15.50;1.00
14946;DHT22;7567;50.916;6.900;2023-07-13T02:32:13;15.30;1.00
14946;DHT22;7567;50.916;6.900;2023-07-13T02:34:41;15.40;1.00
14946;DHT22;7567;50.916;6.900;2023-07-13T02:37:07;15.20;1.00
14946;DHT22;7567;50.916;6.900;2023-07-13T02:39:33;15.30;1.00
14946;DHT22;7567;50.916;6.900;2023-07-13T02:41:59;15.30;1.00
14946;DHT22;7567;50.916;6.900;2023-07-13T02:44:26;15.40;1.00
14946;DHT22;7567;50.916;6.900;2023-07-13T02:46:52;15.40;1.00
14946;DHT22;7567;50.916;6.900;2023-07-13T02:49:17;15.30;1.00
14946;DHT22;7567;50.916;6.900;2023-07-13T02:51:43;15.10;1.00
14946;DHT22;7567;50.916;6.900;2023-07-13T02:54:09;15.10;1.00
14946;DHT22;7567;50.916;6.900;2023-07-13T02:56:35;14.90;1.00
14946;DHT22;7567;50.916;6.900;2023-07-13T02:59:01;14.90;1.00
14946;DHT22;7567;50.916;6.900;2023-07-13T03:01:28;14.80;1.00
14946;DHT22;7567;50.916;6.900;2023-07-13T03:03:53;14.70;1.00
14946;DHT22;7567;50.916;6.900;2023-07-13T03:06:19;14.80;1.00
14946;DHT22;7567;50.916;6.900;2023-07-13T03:08:47;15.00;1.00
14946;DHT22;7567;50.916;6.900;2023-07-13T03:11:16;15.00;1.00
14946;DHT22;7567;50.916;6.900;2023-07-13T03:13:43;15.00;1.00
14946;DHT22;7567;50.916;6.900;2023-07-13T03:16:09;14.90;1.00
14946;DHT22;7567;50.916;6.900;2023-07-13T03:18:36;14.80;1.00
14946;DHT22;7567;50.916;6.900;2023-07-13T03:21:03;14.80;1.00
14946;DHT22;7567;50.916;6.900;2023-07-13T03:23:29;14.70;1.00
14946;DHT22;7567;50.916;6.900;2023-07-13T03:26:09;14.80;1.00
14946;DHT22;7567;50.916;6.900;2023-07-13T03:28:36;14.90;1.00
14946;DHT22;7567;50.916;6.900;2023-07-13T03:31:14;14.70;1.00
14946;DHT22;7567;50.916;6.900;2023-07-13T03:33:41;14.70;1.00
14946;DHT22;7567;50.916;6.900;2023-07-13T03:36:09;14.90;1.00
14946;DHT22;7567;50.916;6.900;2023-07-13T03:38:35;14.80;1.00
14946;DHT22;7567;50.916;6.900;2023-07-13T03:41:01;14.90;1.00
14946;DHT22;7567;50.916;6.900;2023-07-13T03:43:27;14.90;1.00
14946;DHT22;7567;50.916;6.900;2023-07-13T03:45:52;14.90;1.00
14946;DHT22;7567;50.916;6.900;2023-07-13T03:48:18;14.80;1.00
14946;DHT22;7567;50.916;6.900;2023-07-13T03:50:44;14.80;1.00
14946;DHT22;7567;50.916;6.900;2023-07-13T03:53:10;14.80;1.00
14946;DHT22;7567;50.916;6.900;2023-07-13T03:55:36;14.70;1.00
14946;DHT22;7567;50.916;6.900;2023-07-13T04:00:50;14.90;1.00
14946;DHT22;7567;50.916;6.900;2023-07-13T04:03:16;14.80;1.00
14946;DHT22;7567;50.916;6.900;2023-07-13T04:05:42;14.80;1.00
14946;DHT22;7567;50.916;6.900;2023-07-13T04:08:07;14.70;1.00
14946;DHT22;7567;50.916;6.900;2023-07-13T04:10:33;14.70;1.00
14946;DHT22;7567;50.916;6.900;2023-07-13T04:12:59;14.80;1.00
14946;DHT22;7567;50.916;6.900;2023-07-13T04:15:28;14.80;1.00
14946;DHT22;7567;50.916;6.900;2023-07-13T04:17:54;14.70;1.00
14946;DHT22;7567;50.916;6.900;2023-07-13T04:20:20;14.70;1.00
14946;DHT22;7567;50.916;6.900;2023-07-13T04:22:47;14.70;1.00
14946;DHT22;7567;50.916;6.900;2023-07-13T04:25:13;14.70;1.00
14946;DHT22;7567;50.916;6.900;2023-07-13T04:27:39;14.80;1.00
14946;DHT22;7567;50.916;6.900;2023-07-13T04:30:06;15.00;1.00
14946;DHT22;7567;50.916;6.900;2023-07-13T04:32:32;15.00;1.00
14946;DHT22;7567;50.916;6.900;2023-07-13T04:34:58;15.10;1.00
14946;DHT22;7567;50.916;6.900;2023-07-13T04:37:25;15.20;1.00
14946;DHT22;7567;50.916;6.900;2023-07-13T04:39:52;15.30;1.00
14946;DHT22;7567;50.916;6.900;2023-07-13T04:42:18;15.40;1.00
14946;DHT22;7567;50.916;6.900;2023-07-13T04:44:48;15.50;1.00
14946;DHT22;7567;50.916;6.900;2023-07-13T04:47:14;15.60;1.00
14946;DHT22;7567;50.916;6.900;2023-07-13T04:49:40;15.70;1.00
14946;DHT22;7567;50.916;6.900;2023-07-13T04:52:06;15.70;1.00
14946;DHT22;7567;50.916;6.900;2023-07-13T04:54:34;15.70;1.00
14946;DHT22;7567;50.916;6.900;2023-07-13T04:57:00;15.70;1.00
14946;DHT22;7567;50.916;6.900;2023-07-13T04:59:26;15.90;1.00
14946;DHT22;7567;50.916;6.900;2023-07-13T05:01:52;15.90;1.00
14946;DHT22;7567;50.916;6.900;2023-07-13T05:04:18;15.90;1.00
14946;DHT22;7567;50.916;6.900;2023-07-13T05:06:44;15.90;1.00
14946;DHT22;7567;50.916;6.900;2023-07-13T05:09:10;16.00;1.00
14946;DHT22;7567;50.916;6.900;2023-07-13T05:11:35;16.10;1.00
14946;DHT22;7567;50.916;6.900;2023-07-13T05:14:01;16.20;1.00
14946;DHT22;7567;50.916;6.900;2023-07-13T05:16:27;16.30;1.00
14946;DHT22;7567;50.916;6.900;2023-07-13T05:18:53;16.20;1.00
14946;DHT22;7567;50.916;6.900;2023-07-13T05:21:19;16.10;1.00
14946;DHT22;7567;50.916;6.900;2023-07-13T05:23:45;16.10;1.00
14946;DHT22;7567;50.916;6.900;2023-07-13T05:26:11;16.20;1.00
14946;DHT22;7567;50.916;6.900;2023-07-13T05:28:38;16.30;1.00
14946;DHT22;7567;50.916;6.900;2023-07-13T05:31:04;16.40;1.00
14946;DHT22;7567;50.916;6.900;2023-07-13T05:33:30;16.40;1.00
14946;DHT22;7567;50.916;6.900;2023-07-13T05:35:56;16.50;1.00
14946;DHT22;7567;50.916;6.900;2023-07-13T05:38:22;16.60;1.00
14946;DHT22;7567;50.916;6.900;2023-07-13T05:40:48;16.70;1.00
14946;DHT22;7567;50.916;6.900;2023-07-13T05:43:14;16.70;1.00
14946;DHT22;7567;50.916;6.900;2023-07-13T05:45:40;16.90;1.00
14946;DHT22;7567;50.916;6.900;2023-07-13T05:48:06;17.00;1.00
14946;DHT22;7567;50.916;6.900;2023-07-13T05:50:32;17.20;1.00
14946;DHT22;7567;50.916;6.900;2023-07-13T05:52:58;17.40;1.00
14946;DHT22;7567;50.916;6.900;2023-07-13T05:55:24;17.50;1.00
14946;DHT22;7567;50.916;6.900;2023-07-13T05:57:50;17.80;1.00
14946;DHT22;7567;50.916;6.900;2023-07-13T06:00:16;17.80;1.00
14946;DHT22;7567;50.916;6.900;2023-07-13T06:02:42;17.80;1.00
14946;DHT22;7567;50.916;6.900;2023-07-13T06:05:08;17.90;1.00
14946;DHT22;7567;50.916;6.900;2023-07-13T06:07:34;18.00;1.00
14946;DHT22;7567;50.916;6.900;2023-07-13T06:09:59;18.10;1.00
14946;DHT22;7567;50.916;6.900;2023-07-13T06:12:26;18.20;1.00
14946;DHT22;7567;50.916;6.900;2023-07-13T06:14:52;18.10;1.00
14946;DHT22;7567;50.916;6.900;2023-07-13T06:17:18;18.00;1.00
14946;DHT22;7567;50.916;6.900;2023-07-13T06:19:44;18.10;1.00
14946;DHT22;7567;50.916;6.900;2023-07-13T06:22:09;18.00;1.00
14946;DHT22;7567;50.916;6.900;2023-07-13T06:24:38;18.30;1.00
14946;DHT22;7567;50.916;6.900;2023-07-13T06:27:04;18.50;1.00
14946;DHT22;7567;50.916;6.900;2023-07-13T06:29:30;18.60;1.00
14946;DHT22;7567;50.916;6.900;2023-07-13T06:31:57;18.70;1.00
14946;DHT22;7567;50.916;6.900;2023-07-13T06:34:23;18.80;1.00
14946;DHT22;7567;50.916;6.900;2023-07-13T06:36:48;18.70;1.00
14946;DHT22;7567;50.916;6.900;2023-07-13T06:39:14;18.70;1.00
14946;DHT22;7567;50.916;6.900;2023-07-13T06:41:40;18.60;1.00
14946;DHT22;7567;50.916;6.900;2023-07-13T06:44:06;18.60;1.00
14946;DHT22;7567;50.916;6.900;2023-07-13T06:46:32;18.60;1.00
14946;DHT22;7567;50.916;6.900;2023-07-13T06:48:58;18.80;1.00
14946;DHT22;7567;50.916;6.900;2023-07-13T06:51:24;18.90;1.00
14946;DHT22;7567;50.916;6.900;2023-07-13T06:53:51;19.00;1.00
14946;DHT22;7567;50.916;6.900;2023-07-13T06:56:17;19.00;1.00
14946;DHT22;7567;50.916;6.900;2023-07-13T06:58:43;18.90;1.00
14946;DHT22;7567;50.916;6.900;2023-07-13T07:01:09;19.00;1.00
14946;DHT22;7567;50.916;6.900;2023-07-13T07:03:35;18.90;1.00
14946;DHT22;7567;50.916;6.900;2023-07-13T07:06:21;18.90;1.00
14946;DHT22;7567;50.916;6.900;2023-07-13T07:08:49;18.70;1.00
14946;DHT22;7567;50.916;6.900;2023-07-13T07:11:21;18.70;1.00
14946;DHT22;7567;50.916;6.900;2023-07-13T07:13:51;18.70;1.00
14946;DHT22;7567;50.916;6.900;2023-07-13T07:16:17;18.90;1.00
14946;DHT22;7567;50.916;6.900;2023-07-13T07:18:44;19.20;1.00
14946;DHT22;7567;50.916;6.900;2023-07-13T07:21:10;19.60;1.00
14946;DHT22;7567;50.916;6.900;2023-07-13T07:23:36;20.00;1.00
14946;DHT22;7567;50.916;6.900;2023-07-13T07:26:02;20.10;1.00
14946;DHT22;7567;50.916;6.900;2023-07-13T07:28:29;19.90;1.00
14946;DHT22;7567;50.916;6.900;2023-07-13T07:30:57;19.90;1.00
14946;DHT22;7567;50.916;6.900;2023-07-13T07:33:23;19.80;1.00
14946;DHT22;7567;50.916;6.900;2023-07-13T07:35:49;19.90;99.90
14946;DHT22;7567;50.916;6.900;2023-07-13T07:38:15;20.30;99.90
14946;DHT22;7567;50.916;6.900;2023-07-13T07:40:41;20.60;99.90
14946;DHT22;7567;50.916;6.900;2023-07-13T07:43:11;21.00;99.90
14946;DHT22;7567;50.916;6.900;2023-07-13T07:45:38;21.00;99.90
14946;DHT22;7567;50.916;6.900;2023-07-13T07:48:05;21.00;99.90
14946;DHT22;7567;50.916;6.900;2023-07-13T07:50:32;20.80;99.90
14946;DHT22;7567;50.916;6.900;2023-07-13T07:52:58;20.70;99.90
14946;DHT22;7567;50.916;6.900;2023-07-13T07:55:24;20.60;99.90
14946;DHT22;7567;50.916;6.900;2023-07-13T07:57:52;20.70;99.90
14946;DHT22;7567;50.916;6.900;2023-07-13T08:00:18;20.70;99.90
14946;DHT22;7567;50.916;6.900;2023-07-13T08:02:45;20.60;99.90
14946;DHT22;7567;50.916;6.900;2023-07-13T08:05:11;20.50;99.90
14946;DHT22;7567;50.916;6.900;2023-07-13T08:07:38;20.50;99.90
14946;DHT22;7567;50.916;6.900;2023-07-13T08:10:08;20.60;99.90
14946;DHT22;7567;50.916;6.900;2023-07-13T08:12:38;20.70;99.90
14946;DHT22;7567;50.916;6.900;2023-07-13T08:15:06;20.90;99.90
14946;DHT22;7567;50.916;6.900;2023-07-13T08:17:32;20.90;99.90
14946;DHT22;7567;50.916;6.900;2023-07-13T08:19:58;20.90;99.90
14946;DHT22;7567;50.916;6.900;2023-07-13T08:22:23;20.90;99.90
14946;DHT22;7567;50.916;6.900;2023-07-13T08:24:49;21.00;99.90
14946;DHT22;7567;50.916;6.900;2023-07-13T08:27:25;21.30;99.90
14946;DHT22;7567;50.916;6.900;2023-07-13T08:29:52;21.30;99.90
14946;DHT22;7567;50.916;6.900;2023-07-13T08:32:19;21.30;99.90
14946;DHT22;7567;50.916;6.900;2023-07-13T08:34:45;21.20;24.30
14946;DHT22;7567;50.916;6.900;2023-07-13T08:37:11;21.30;99.90
14946;DHT22;7567;50.916;6.900;2023-07-13T08:39:37;21.40;99.90
14946;DHT22;7567;50.916;6.900;2023-07-13T08:42:36;21.50;99.90
14946;DHT22;7567;50.916;6.900;2023-07-13T08:45:25;21.30;70.60
14946;DHT22;7567;50.916;6.900;2023-07-13T08:47:58;21.40;99.90
14946;DHT22;7567;50.916;6.900;2023-07-13T08:50:32;21.50;99.90
14946;DHT22;7567;50.916;6.900;2023-07-13T08:53:00;21.40;88.40
14946;DHT22;7567;50.916;6.900;2023-07-13T08:55:30;21.40;1.00
14946;DHT22;7567;50.916;6.900;2023-07-13T08:58:19;21.60;1.00
14946;DHT22;7567;50.916;6.900;2023-07-13T09:03:40;21.60;1.00
14946;DHT22;7567;50.916;6.900;2023-07-13T09:06:10;21.60;99.90
14946;DHT22;7567;50.916;6.900;2023-07-13T09:09:09;21.50;1.00
14946;DHT22;7567;50.916;6.900;2023-07-13T09:11:56;21.80;1.00
14946;DHT22;7567;50.916;6.900;2023-07-13T09:14:37;21.80;1.00
14946;DHT22;7567;50.916;6.900;2023-07-13T09:17:10;21.70;1.00
14946;DHT22;7567;50.916;6.900;2023-07-13T09:19:37;21.40;38.70
14946;DHT22;7567;50.916;6.900;2023-07-13T09:22:05;21.70;1.00
14946;DHT22;7567;50.916;6.900;2023-07-13T09:24:46;22.10;1.00
14946;DHT22;7567;50.916;6.900;2023-07-13T09:27:17;22.40;1.00
14946;DHT22;7567;50.916;6.900;2023-07-13T09:30:16;22.30;99.90
14946;DHT22;7567;50.916;6.900;2023-07-13T09:32:47;22.10;99.90
14946;DHT22;7567;50.916;6.900;2023-07-13T09:35:18;22.40;99.90
14946;DHT22;7567;50.916;6.900;2023-07-13T09:37:45;22.70;99.90
14946;DHT22;7567;50.916;6.900;2023-07-13T09:40:23;22.90;20.00
14946;DHT22;7567;50.916;6.900;2023-07-13T09:42:55;23.10;1.00
14946;DHT22;7567;50.916;6.900;2023-07-13T09:45:28;23.20;1.00
14946;DHT22;7567;50.916;6.900;2023-07-13T09:48:05;23.20;99.90
14946;DHT22;7567;50.916;6.900;2023-07-13T09:50:34;23.20;29.60
14946;DHT22;7567;50.916;6.900;2023-07-13T09:53:01;23.40;99.90
14946;DHT22;7567;50.916;6.900;2023-07-13T09:55:37;23.70;66.80
14946;DHT22;7567;50.916;6.900;2023-07-13T09:58:15;23.60;1.00
14946;DHT22;7567;50.916;6.900;2023-07-13T10:00:43;23.50;1.00
14946;DHT22;7567;50.916;6.900;2023-07-13T10:03:19;23.20;1.00
14946;DHT22;7567;50.916;6.900;2023-07-13T10:05:49;23.30;1.00
14946;DHT22;7567;50.916;6.900;2023-07-13T10:08:24;23.50;99.90
14946;DHT22;7567;50.916;6.900;2023-07-13T10:10:58;23.60;1.00
14946;DHT22;7567;50.916;6.900;2023-07-13T10:13:36;23.80;99.90
14946;DHT22;7567;50.916;6.900;2023-07-13T10:16:04;24.20;1.00
14946;DHT22;7567;50.916;6.900;2023-07-13T10:18:39;24.40;99.90
14946;DHT22;7567;50.916;6.900;2023-07-13T10:21:17;24.60;1.00
14946;DHT22;7567;50.916;6.900;2023-07-13T10:23:47;24.60;1.00
14946;DHT22;7567;50.916;6.900;2023-07-13T10:26:26;24.40;99.90
14946;DHT22;7567;50.916;6.900;2023-07-13T10:28:57;24.10;1.00
14946;DHT22;7567;50.916;6.900;2023-07-13T10:31:24;24.20;99.90
14946;DHT22;7567;50.916;6.900;2023-07-13T10:33:51;24.20;1.00
14946;DHT22;7567;50.916;6.900;2023-07-13T10:36:27;24.40;1.00
14946;DHT22;7567;50.916;6.900;2023-07-13T10:38:55;24.20;99.90
14946;DHT22;7567;50.916;6.900;2023-07-13T10:41:23;24.20;1.00
14946;DHT22;7567;50.916;6.900;2023-07-13T10:43:52;24.20;1.00
14946;DHT22;7567;50.916;6.900;2023-07-13T10:46:24;24.20;1.00
14946;DHT22;7567;50.916;6.900;2023-07-13T10:48:59;24.00;99.90
14946;DHT22;7567;50.916;6.900;2023-07-13T10:51:27;24.20;99.90
14946;DHT22;7567;50.916;6.900;2023-07-13T10:56:45;24.80;1.00
14946;DHT22;7567;50.916;6.900;2023-07-13T11:01:58;24.60;99.90
14946;DHT22;7567;50.916;6.900;2023-07-13T11:04:26;24.40;1.00
14946;DHT22;7567;50.916;6.900;2023-07-13T11:06:58;24.10;99.90
14946;DHT22;7567;50.916;6.900;2023-07-13T11:09:39;23.80;99.90
14946;DHT22;7567;50.916;6.900;2023-07-13T11:25:38;23.70;99.90
14946;DHT22;7567;50.916;6.900;2023-07-13T11:28:16;23.70;1.00
14946;DHT22;7567;50.916;6.900;2023-07-13T11:31:11;23.50;99.90
14946;DHT22;7567;50.916;6.900;2023-07-13T11:36:13;23.50;99.90
14946;DHT22;7567;50.916;6.900;2023-07-13T11:38:41;23.40;99.90
14946;DHT22;7567;50.916;6.900;2023-07-13T11:41:26;23.40;1.00
14946;DHT22;7567;50.916;6.900;2023-07-13T11:44:02;23.20;1.00
14946;DHT22;7567;50.916;6.900;2023-07-13T11:46:30;23.00;49.40
14946;DHT22;7567;50.916;6.900;2023-07-13T11:48:56;22.90;99.90
14946;DHT22;7567;50.916;6.900;2023-07-13T11:51:29;22.90;1.00
14946;DHT22;7567;50.916;6.900;2023-07-13T11:54:02;23.10;99.90
14946;DHT22;7567;50.916;6.900;2023-07-13T11:56:28;23.20;99.90
14946;DHT22;7567;50.916;6.900;2023-07-13T11:58:56;23.20;99.90
14946;DHT22;7567;50.916;6.900;2023-07-13T12:01:26;23.50;1.00
14946;DHT22;7567;50.916;6.900;2023-07-13T12:03:54;23.50;99.90
14946;DHT22;7567;50.916;6.900;2023-07-13T12:06:27;23.50;99.90
14946;DHT22;7567;50.916;6.900;2023-07-13T12:08:56;23.50;31.00
14946;DHT22;7567;50.916;6.900;2023-07-13T12:11:23;23.40;1.00
14946;DHT22;7567;50.916;6.900;2023-07-13T12:13:50;23.20;1.00
14946;DHT22;7567;50.916;6.900;2023-07-13T12:16:24;23.10;1.00
14946;DHT22;7567;50.916;6.900;2023-07-13T12:18:52;23.20;1.00
14946;DHT22;7567;50.916;6.900;2023-07-13T12:21:19;23.40;1.00
14946;DHT22;7567;50.916;6.900;2023-07-13T12:23:48;23.40;1.00
14946;DHT22;7567;50.916;6.900;2023-07-13T12:26:15;23.50;1.00
14946;DHT22;7567;50.916;6.900;2023-07-13T12:28:49;23.50;99.90
14946;DHT22;7567;50.916;6.900;2023-07-13T12:31:33;23.70;1.00
14946;DHT22;7567;50.916;6.900;2023-07-13T12:34:09;24.30;1.00
14946;DHT22;7567;50.916;6.900;2023-07-13T12:36:58;24.60;99.90
14946;DHT22;7567;50.916;6.900;2023-07-13T12:42:23;23.90;1.00
14946;DHT22;7567;50.916;6.900;2023-07-13T12:44:53;23.80;1.00
14946;DHT22;7567;50.916;6.900;2023-07-13T12:47:20;23.70;99.90
14946;DHT22;7567;50.916;6.900;2023-07-13T12:49:55;23.80;1.00
14946;DHT22;7567;50.916;6.900;2023-07-13T12:52:29;23.90;1.00
14946;DHT22;7567;50.916;6.900;2023-07-13T12:55:27;24.10;1.00
14946;DHT22;7567;50.916;6.900;2023-07-13T12:57:58;24.20;99.90
14946;DHT22;7567;50.916;6.900;2023-07-13T13:00:32;24.20;99.90
14946;DHT22;7567;50.916;6.900;2023-07-13T13:03:05;24.40;1.00
14946;DHT22;7567;50.916;6.900;2023-07-13T13:05:32;24.70;1.00
14946;DHT22;7567;50.916;6.900;2023-07-13T13:07:59;24.90;1.00
14946;DHT22;7567;50.916;6.900;2023-07-13T13:10:25;25.00;99.90
14946;DHT22;7567;50.916;6.900;2023-07-13T13:12:52;25.30;99.90
14946;DHT22;7567;50.916;6.900;2023-07-13T13:15:18;25.50;1.00
14946;DHT22;7567;50.916;6.900;2023-07-13T13:17:44;25.60;1.00
14946;DHT22;7567;50.916;6.900;2023-07-13T13:20:18;26.00;99.90
14946;DHT22;7567;50.916;6.900;2023-07-13T13:22:45;25.90;1.00
14946;DHT22;7567;50.916;6.900;2023-07-13T13:25:15;26.10;1.00
14946;DHT22;7567;50.916;6.900;2023-07-13T13:27:41;25.90;99.90
14946;DHT22;7567;50.916;6.900;2023-07-13T13:30:12;25.60;99.90
14946;DHT22;7567;50.916;6.900;2023-07-13T13:32:43;25.70;99.90
14946;DHT22;7567;50.916;6.900;2023-07-13T13:35:17;25.50;99.90
14946;DHT22;7567;50.916;6.900;2023-07-13T13:37:47;25.60;1.00
14946;DHT22;7567;50.916;6.900;2023-07-13T13:40:18;26.10;1.00
14946;DHT22;7567;50.916;6.900;2023-07-13T13:42:44;26.70;1.00
14946;DHT22;7567;50.916;6.900;2023-07-13T13:45:10;26.70;99.90
14946;DHT22;7567;50.916;6.900;2023-07-13T13:47:38;26.70;99.90
14946;DHT22;7567;50.916;6.900;2023-07-13T13:50:13;26.80;99.90
14946;DHT22;7567;50.916;6.900;2023-07-13T13:52:40;26.70;99.90
14946;DHT22;7567;50.916;6.900;2023-07-13T13:55:18;26.90;1.00
14946;DHT22;7567;50.916;6.900;2023-07-13T13:57:48;26.20;99.90
14946;DHT22;7567;50.916;6.900;2023-07-13T14:00:15;26.20;99.90
14946;DHT22;7567;50.916;6.900;2023-07-13T14:02:45;25.90;13.80
14946;DHT22;7567;50.916;6.900;2023-07-13T14:05:22;25.70;99.90
14946;DHT22;7567;50.916;6.900;2023-07-13T14:07:48;25.70;99.90
14946;DHT22;7567;50.916;6.900;2023-07-13T14:10:17;25.60;99.90
14946;DHT22;7567;50.916;6.900;2023-07-13T14:12:45;25.70;99.90
14946;DHT22;7567;50.916;6.900;2023-07-13T14:15:33;25.80;99.90
14946;DHT22;7567;50.916;6.900;2023-07-13T14:17:59;26.10;1.00
14946;DHT22;7567;50.916;6.900;2023-07-13T14:20:25;26.00;1.00
14946;DHT22;7567;50.916;6.900;2023-07-13T14:22:52;26.10;1.00
14946;DHT22;7567;50.916;6.900;2023-07-13T14:25:20;26.20;1.00
14946;DHT22;7567;50.916;6.900;2023-07-13T14:27:49;26.50;99.90
14946;DHT22;7567;50.916;6.900;2023-07-13T14:30:20;26.50;1.00
14946;DHT22;7567;50.916;6.900;2023-07-13T14:32:46;26.60;1.00
14946;DHT22;7567;50.916;6.900;2023-07-13T14:35:14;26.20;1.00
14946;DHT22;7567;50.916;6.900;2023-07-13T14:37:40;26.20;1.00
14946;DHT22;7567;50.916;6.900;2023-07-13T14:40:19;26.50;48.40
14946;DHT22;7567;50.916;6.900;2023-07-13T14:42:47;26.50;1.00
14946;DHT22;7567;50.916;6.900;2023-07-13T14:45:17;26.30;1.00
14946;DHT22;7567;50.916;6.900;2023-07-13T14:47:43;26.30;1.00
14946;DHT22;7567;50.916;6.900;2023-07-13T14:50:21;26.40;1.00
14946;DHT22;7567;50.916;6.900;2023-07-13T14:52:47;26.30;1.00
14946;DHT22;7567;50.916;6.900;2023-07-13T14:55:16;26.10;1.00
14946;DHT22;7567;50.916;6.900;2023-07-13T14:57:45;26.40;1.00
14946;DHT22;7567;50.916;6.900;2023-07-13T15:00:16;26.20;1.00
14946;DHT22;7567;50.916;6.900;2023-07-13T15:02:50;26.40;1.00
14946;DHT22;7567;50.916;6.900;2023-07-13T15:05:23;26.20;1.00
14946;DHT22;7567;50.916;6.900;2023-07-13T15:07:51;26.20;1.00
14946;DHT22;7567;50.916;6.900;2023-07-13T15:10:23;26.30;1.00
14946;DHT22;7567;50.916;6.900;2023-07-13T15:13:18;26.30;1.00
14946;DHT22;7567;50.916;6.900;2023-07-13T15:15:47;26.30;1.00
14946;DHT22;7567;50.916;6.900;2023-07-13T15:18:16;26.40;1.00
14946;DHT22;7567;50.916;6.900;2023-07-13T15:20:44;26.60;1.00
14946;DHT22;7567;50.916;6.900;2023-07-13T15:23:11;26.60;1.00
14946;DHT22;7567;50.916;6.900;2023-07-13T15:25:38;26.60;1.00
14946;DHT22;7567;50.916;6.900;2023-07-13T15:28:04;26.50;1.00
14946;DHT22;7567;50.916;6.900;2023-07-13T15:30:33;26.60;1.00
14946;DHT22;7567;50.916;6.900;2023-07-13T15:33:14;26.30;1.00
14946;DHT22;7567;50.916;6.900;2023-07-13T15:35:41;26.30;1.00
14946;DHT22;7567;50.916;6.900;2023-07-13T15:38:16;26.30;1.00
14946;DHT22;7567;50.916;6.900;2023-07-13T15:40:42;25.80;1.00
14946;DHT22;7567;50.916;6.900;2023-07-13T15:43:12;25.50;1.00
14946;DHT22;7567;50.916;6.900;2023-07-13T15:45:39;25.40;1.00
14946;DHT22;7567;50.916;6.900;2023-07-13T15:48:20;25.10;1.00
14946;DHT22;7567;50.916;6.900;2023-07-13T15:50:55;24.90;1.00
14946;DHT22;7567;50.916;6.900;2023-07-13T15:53:30;24.80;1.00
14946;DHT22;7567;50.916;6.900;2023-07-13T15:55:57;24.60;1.00
14946;DHT22;7567;50.916;6.900;2023-07-13T15:58:24;24.50;1.00
14946;DHT22;7567;50.916;6.900;2023-07-13T16:00:51;24.20;99.90
14946;DHT22;7567;50.916;6.900;2023-07-13T16:03:20;24.20;1.00
14946;DHT22;7567;50.916;6.900;2023-07-13T16:05:46;24.00;1.00
14946;DHT22;7567;50.916;6.900;2023-07-13T16:08:33;24.00;1.00
14946;DHT22;7567;50.916;6.900;2023-07-13T16:11:00;23.90;99.90
14946;DHT22;7567;50.916;6.900;2023-07-13T16:13:26;23.60;1.00
14946;DHT22;7567;50.916;6.900;2023-07-13T16:15:53;23.50;1.00
14946;DHT22;7567;50.916;6.900;2023-07-13T16:18:21;23.50;1.00
14946;DHT22;7567;50.916;6.900;2023-07-13T16:20:47;23.60;1.00
14946;DHT22;7567;50.916;6.900;2023-07-13T16:23:15;23.50;1.00
14946;DHT22;7567;50.916;6.900;2023-07-13T16:25:42;23.40;1.00
14946;DHT22;7567;50.916;6.900;2023-07-13T16:28:10;23.50;99.90
14946;DHT22;7567;50.916;6.900;2023-07-13T16:30:36;23.40;1.00
14946;DHT22;7567;50.916;6.900;2023-07-13T16:33:04;23.30;99.90
14946;DHT22;7567;50.916;6.900;2023-07-13T16:35:38;23.30;99.90
14946;DHT22;7567;50.916;6.900;2023-07-13T16:38:16;23.30;36.30